sensor_id;sensor_type;location;lat;lon;timestamp;pressure;altitude;pressure_sealevel;temperature;humidity
14242;BME280;7205;50.864;12.766;2023-04-29T00:02:09;97099.16;;;12.48;98.86
14242;BME280;7205;50.864;12.766;2023-04-29T00:04:36;97106.13;;;12.49;99.61
14242;BME280;7205;50.864;12.766;2023-04-29T00:07:02;97099.78;;;12.50;100.00
14242;BME280;7205;50.864;12.766;2023-04-29T00:09:29;97095.13;;;12.52;100.00
14242;BME280;7205;50.864;12.766;2023-04-29T00:11:56;97096.53;;;12.54;100.00
14242;BME280;7205;50.864;12.766;2023-04-29T00:14:23;97096.94;;;12.58;100.00
14242;BME280;7205;50.864;12.766;2023-04-29T00:16:50;97102.66;;;12.61;100.00
14242;BME280;7205;50.864;12.766;2023-04-29T00:19:18;97108.38;;;12.65;100.00
14242;BME280;7205;50.864;12.766;2023-04-29T00:21:45;97117.16;;;12.66;100.00
14242;BME280;7205;50.864;12.766;2023-04-29T00:24:11;97117.56;;;12.69;100.00
14242;BME280;7205;50.864;12.766;2023-04-29T00:26:38;97116.34;;;12.72;100.00
14242;BME280;7205;50.864;12.766;2023-04-29T00:29:05;97107.97;;;12.75;100.00
14242;BME280;7205;50.864;12.766;2023-04-29T00:31:32;97099.81;;;12.76;100.00
14242;BME280;7205;50.864;12.766;2023-04-29T00:33:59;97102.09;;;12.79;100.00
14242;BME280;7205;50.864;12.766;2023-04-29T00:36:27;97089.66;;;12.80;100.00
14242;BME280;7205;50.864;12.766;2023-04-29T00:38:56;97091.09;;;12.82;100.00
14242;BME280;7205;50.864;12.766;2023-04-29T00:41:23;97092.50;;;12.85;100.00
14242;BME280;7205;50.864;12.766;2023-04-29T00:43:50;97090.69;;;12.85;100.00
14242;BME280;7205;50.864;12.766;2023-04-29T00:46:16;97079.88;;;12.87;100.00
14242;BME280;7205;50.864;12.766;2023-04-29T00:48:43;97094.94;;;12.86;100.00
14242;BME280;7205;50.864;12.766;2023-04-29T00:51:10;97099.25;;;12.87;100.00
14242;BME280;7205;50.864;12.766;2023-04-29T00:53:38;97106.56;;;12.85;100.00
14242;BME280;7205;50.864;12.766;2023-04-29T00:56:06;97103.09;;;12.85;100.00
14242;BME280;7205;50.864;12.766;2023-04-29T00:58:34;97106.56;;;12.85;100.00
14242;BME280;7205;50.864;12.766;2023-04-29T01:01:03;97110.84;;;12.86;100.00
14242;BME280;7205;50.864;12.766;2023-04-29T01:03:31;97112.50;;;12.87;100.00
14242;BME280;7205;50.864;12.766;2023-04-29T01:08:51;97107.59;;;12.84;100.00
14242;BME280;7205;50.864;12.766;2023-04-29T01:11:29;97108.59;;;12.83;100.00
14242;BME280;7205;50.864;12.766;2023-04-29T01:14:01;97114.53;;;12.85;100.00
14242;BME280;7205;50.864;12.766;2023-04-29T01:16:34;97118.78;;;12.86;100.00
14242;BME280;7205;50.864;12.766;2023-04-29T01:19:15;97115.34;;;12.86;100.00
14242;BME280;7205;50.864;12.766;2023-04-29T01:21:46;97114.31;;;12.87;100.00
14242;BME280;7205;50.864;12.766;2023-04-29T01:24:16;97115.16;;;12.87;100.00
14242;BME280;7205;50.864;12.766;2023-04-29T01:26:52;97123.09;;;12.87;100.00
14242;BME280;7205;50.864;12.766;2023-04-29T01:29:52;97128.19;;;12.89;100.00
14242;BME280;7205;50.864;12.766;2023-04-29T01:32:27;97127.16;;;12.90;100.00
14242;BME280;7205;50.864;12.766;2023-04-29T01:35:03;97121.66;;;12.91;100.00
14242;BME280;7205;50.864;12.766;2023-04-29T01:37:39;97132.09;;;12.93;100.00
14242;BME280;7205;50.864;12.766;2023-04-29T01:40:14;97129.22;;;12.94;100.00
14242;BME280;7205;50.864;12.766;2023-04-29T01:42:59;97136.97;;;12.96;100.00
14242;BME280;7205;50.864;12.766;2023-04-29T01:45:29;97129.63;;;12.98;100.00
14242;BME280;7205;50.864;12.766;2023-04-29T01:47:58;97133.91;;;12.99;100.00
14242;BME280;7205;50.864;12.766;2023-04-29T01:50:26;97133.53;;;13.02;100.00
14242;BME280;7205;50.864;12.766;2023-04-29T01:52:57;97137.84;;;13.03;100.00
14242;BME280;7205;50.864;12.766;2023-04-29T01:55:26;97133.13;;;13.05;100.00
14242;BME280;7205;50.864;12.766;2023-04-29T01:58:11;97134.75;;;13.06;100.00
14242;BME280;7205;50.864;12.766;2023-04-29T02:00:58;97140.88;;;13.06;100.00
14242;BME280;7205;50.864;12.766;2023-04-29T02:03:28;97134.34;;;13.09;100.00
14242;BME280;7205;50.864;12.766;2023-04-29T02:05:56;97138.63;;;13.10;100.00
14242;BME280;7205;50.864;12.766;2023-04-29T02:08:23;97130.47;;;13.11;100.00
14242;BME280;7205;50.864;12.766;2023-04-29T02:10:54;97135.59;;;13.13;100.00
14242;BME280;7205;50.864;12.766;2023-04-29T02:13:37;97144.34;;;13.13;100.00
14242;BME280;7205;50.864;12.766;2023-04-29T02:16:08;97151.28;;;13.14;100.00
14242;BME280;7205;50.864;12.766;2023-04-29T02:18:36;97144.97;;;13.15;100.00
14242;BME280;7205;50.864;12.766;2023-04-29T02:21:04;97142.09;;;13.17;100.00
14242;BME280;7205;50.864;12.766;2023-04-29T02:23:33;97155.16;;;13.18;100.00
14242;BME280;7205;50.864;12.766;2023-04-29T02:26:01;97143.53;;;13.19;100.00
14242;BME280;7205;50.864;12.766;2023-04-29T02:28:30;97138.03;;;13.21;100.00
14242;BME280;7205;50.864;12.766;2023-04-29T02:30:56;97146.78;;;13.21;100.00
14242;BME280;7205;50.864;12.766;2023-04-29T02:33:23;97135.19;;;13.22;100.00
14242;BME280;7205;50.864;12.766;2023-04-29T02:35:50;97142.09;;;13.23;100.00
14242;BME280;7205;50.864;12.766;2023-04-29T02:38:17;97145.56;;;13.24;100.00
14242;BME280;7205;50.864;12.766;2023-04-29T02:40:45;97140.47;;;13.22;100.00
14242;BME280;7205;50.864;12.766;2023-04-29T02:43:13;97143.13;;;13.22;100.00
14242;BME280;7205;50.864;12.766;2023-04-29T02:45:40;97139.88;;;13.20;100.00
14242;BME280;7205;50.864;12.766;2023-04-29T02:48:07;97145.16;;;13.20;100.00
14242;BME280;7205;50.864;12.766;2023-04-29T02:50:34;97141.47;;;13.21;100.00
14242;BME280;7205;50.864;12.766;2023-04-29T02:53:02;97143.34;;;13.21;100.00
14242;BME280;7205;50.864;12.766;2023-04-29T02:55:28;97140.69;;;13.21;100.00
14242;BME280;7205;50.864;12.766;2023-04-29T02:58:00;97142.31;;;13.22;100.00
14242;BME280;7205;50.864;12.766;2023-04-29T03:00:30;97142.31;;;13.22;100.00
14242;BME280;7205;50.864;12.766;2023-04-29T03:02:56;97150.25;;;13.22;100.00
14242;BME280;7205;50.864;12.766;2023-04-29T03:05:23;97147.41;;;13.23;100.00
14242;BME280;7205;50.864;12.766;2023-04-29T03:07:50;97143.75;;;13.24;100.00
14242;BME280;7205;50.864;12.766;2023-04-29T03:10:18;97149.06;;;13.24;100.00
14242;BME280;7205;50.864;12.766;2023-04-29T03:12:45;97151.09;;;13.22;100.00
14242;BME280;7205;50.864;12.766;2023-04-29T03:15:12;97148.44;;;13.22;100.00
14242;BME280;7205;50.864;12.766;2023-04-29T03:17:42;97137.00;;;13.22;100.00
14242;BME280;7205;50.864;12.766;2023-04-29T03:20:12;97143.13;;;13.22;100.00
14242;BME280;7205;50.864;12.766;2023-04-29T03:22:38;97139.88;;;13.20;100.00
14242;BME280;7205;50.864;12.766;2023-04-29T03:25:06;97140.91;;;13.19;100.00
14242;BME280;7205;50.864;12.766;2023-04-29T03:27:36;97142.94;;;13.17;100.00
14242;BME280;7205;50.864;12.766;2023-04-29T03:30:04;97134.16;;;13.17;100.00
14242;BME280;7205;50.864;12.766;2023-04-29T03:32:31;97136.59;;;13.18;100.00
14242;BME280;7205;50.864;12.766;2023-04-29T03:35:00;97139.25;;;13.18;100.00
14242;BME280;7205;50.864;12.766;2023-04-29T03:37:43;97140.28;;;13.17;100.00
14242;BME280;7205;50.864;12.766;2023-04-29T03:40:27;97132.31;;;13.17;100.00
14242;BME280;7205;50.864;12.766;2023-04-29T03:42:53;97134.97;;;13.17;100.00
14242;BME280;7205;50.864;12.766;2023-04-29T03:45:20;97128.84;;;13.17;100.00
14242;BME280;7205;50.864;12.766;2023-04-29T03:47:47;97131.72;;;13.15;100.00
14242;BME280;7205;50.864;12.766;2023-04-29T03:50:15;97128.22;;;13.15;100.00
14242;BME280;7205;50.864;12.766;2023-04-29T03:52:43;97135.38;;;13.14;100.00
14242;BME280;7205;50.864;12.766;2023-04-29T03:55:13;97128.44;;;13.13;100.00
14242;BME280;7205;50.864;12.766;2023-04-29T03:57:41;97132.94;;;13.13;100.00
14242;BME280;7205;50.864;12.766;2023-04-29T04:00:10;97132.94;;;13.13;100.00
14242;BME280;7205;50.864;12.766;2023-04-29T04:02:44;97136.59;;;13.12;100.00
14242;BME280;7205;50.864;12.766;2023-04-29T04:05:12;97133.94;;;13.12;100.00
14242;BME280;7205;50.864;12.766;2023-04-29T04:07:43;97144.53;;;13.12;100.00
14242;BME280;7205;50.864;12.766;2023-04-29T04:10:33;97139.44;;;13.10;100.00
14242;BME280;7205;50.864;12.766;2023-04-29T04:13:03;97143.72;;;13.11;100.00
14242;BME280;7205;50.864;12.766;2023-04-29T04:15:30;97141.91;;;13.12;100.00
14242;BME280;7205;50.864;12.766;2023-04-29T04:17:58;97144.53;;;13.12;100.00
14242;BME280;7205;50.864;12.766;2023-04-29T04:20:25;97148.66;;;13.14;100.00
14242;BME280;7205;50.864;12.766;2023-04-29T04:22:54;97139.66;;;13.15;100.00
14242;BME280;7205;50.864;12.766;2023-04-29T04:25:24;97150.06;;;13.17;100.00
14242;BME280;7205;50.864;12.766;2023-04-29T04:27:54;97149.84;;;13.18;100.00
14242;BME280;7205;50.864;12.766;2023-04-29T04:30:39;97149.84;;;13.18;100.00
14242;BME280;7205;50.864;12.766;2023-04-29T04:33:07;97152.09;;;13.21;100.00
14242;BME280;7205;50.864;12.766;2023-04-29T04:35:37;97155.34;;;13.23;100.00
14242;BME280;7205;50.864;12.766;2023-04-29T04:38:05;97159.03;;;13.29;100.00
14242;BME280;7205;50.864;12.766;2023-04-29T04:40:32;97151.50;;;13.32;100.00
14242;BME280;7205;50.864;12.766;2023-04-29T04:43:37;97155.34;;;13.36;100.00
14242;BME280;7205;50.864;12.766;2023-04-29T04:46:11;97154.97;;;13.39;100.00
14242;BME280;7205;50.864;12.766;2023-04-29T04:48:47;97151.91;;;13.42;100.00
14242;BME280;7205;50.864;12.766;2023-04-29T04:51:14;97149.88;;;13.44;100.00
14242;BME280;7205;50.864;12.766;2023-04-29T04:53:43;97147.00;;;13.46;100.00
14242;BME280;7205;50.864;12.766;2023-04-29T04:56:17;97157.63;;;13.46;100.00
14242;BME280;7205;50.864;12.766;2023-04-29T04:58:45;97157.41;;;13.47;100.00
14242;BME280;7205;50.864;12.766;2023-04-29T05:01:13;97158.22;;;13.48;100.00
14242;BME280;7205;50.864;12.766;2023-04-29T05:03:40;97154.56;;;13.49;100.00
14242;BME280;7205;50.864;12.766;2023-04-29T05:06:07;97154.75;;;13.47;100.00
14242;BME280;7205;50.864;12.766;2023-04-29T05:08:34;97155.59;;;13.48;100.00
14242;BME280;7205;50.864;12.766;2023-04-29T05:11:04;97162.50;;;13.49;100.00
14242;BME280;7205;50.864;12.766;2023-04-29T05:13:32;97164.53;;;13.47;100.00
14242;BME280;7205;50.864;12.766;2023-04-29T05:16:01;97162.91;;;13.46;100.00
14242;BME280;7205;50.864;12.766;2023-04-29T05:18:29;97165.56;;;13.46;100.00
14242;BME280;7205;50.864;12.766;2023-04-29T05:20:57;97166.38;;;13.46;100.00
14242;BME280;7205;50.864;12.766;2023-04-29T05:23:25;97167.81;;;13.49;100.00
14242;BME280;7205;50.864;12.766;2023-04-29T05:25:52;97159.66;;;13.50;100.00
14242;BME280;7205;50.864;12.766;2023-04-29T05:28:20;97168.44;;;13.51;100.00
14242;BME280;7205;50.864;12.766;2023-04-29T05:30:49;97176.38;;;13.51;100.00
14242;BME280;7205;50.864;12.766;2023-04-29T05:33:16;97179.03;;;13.51;100.00
14242;BME280;7205;50.864;12.766;2023-04-29T05:35:43;97183.09;;;13.53;100.00
14242;BME280;7205;50.864;12.766;2023-04-29T05:38:10;97176.38;;;13.57;100.00
14242;BME280;7205;50.864;12.766;2023-04-29T05:40:46;97182.72;;;13.63;100.00
14242;BME280;7205;50.864;12.766;2023-04-29T05:43:24;97185.94;;;13.65;100.00
14242;BME280;7205;50.864;12.766;2023-04-29T05:45:52;97190.25;;;13.66;100.00
14242;BME280;7205;50.864;12.766;2023-04-29T05:48:19;97183.50;;;13.63;100.00
14242;BME280;7205;50.864;12.766;2023-04-29T05:50:46;97187.19;;;13.62;100.00
14242;BME280;7205;50.864;12.766;2023-04-29T05:53:13;97191.66;;;13.62;100.00
14242;BME280;7205;50.864;12.766;2023-04-29T05:55:41;97196.78;;;13.63;100.00
14242;BME280;7205;50.864;12.766;2023-04-29T05:58:09;97197.59;;;13.64;100.00
14242;BME280;7205;50.864;12.766;2023-04-29T06:00:38;97198.63;;;13.63;100.00
14242;BME280;7205;50.864;12.766;2023-04-29T06:03:13;97200.88;;;13.59;100.00
14242;BME280;7205;50.864;12.766;2023-04-29T06:05:39;97196.16;;;13.55;100.00
14242;BME280;7205;50.864;12.766;2023-04-29T06:08:16;97201.88;;;13.52;100.00
14242;BME280;7205;50.864;12.766;2023-04-29T06:10:45;97205.78;;;13.49;100.00
14242;BME280;7205;50.864;12.766;2023-04-29T06:13:12;97212.50;;;13.45;100.00
14242;BME280;7205;50.864;12.766;2023-04-29T06:15:40;97214.31;;;13.38;100.00
14242;BME280;7205;50.864;12.766;2023-04-29T06:18:07;97211.88;;;13.30;100.00
14242;BME280;7205;50.864;12.766;2023-04-29T06:20:34;97216.13;;;13.25;100.00
14242;BME280;7205;50.864;12.766;2023-04-29T06:23:00;97226.16;;;13.23;100.00
14242;BME280;7205;50.864;12.766;2023-04-29T06:25:27;97226.94;;;13.23;100.00
14242;BME280;7205;50.864;12.766;2023-04-29T06:27:55;97234.69;;;13.25;100.00
14242;BME280;7205;50.864;12.766;2023-04-29T06:30:25;97243.28;;;13.27;100.00
14242;BME280;7205;50.864;12.766;2023-04-29T06:32:54;97243.47;;;13.32;100.00
14242;BME280;7205;50.864;12.766;2023-04-29T06:35:21;97246.13;;;13.38;100.00
14242;BME280;7205;50.864;12.766;2023-04-29T06:38:11;97241.47;;;13.47;100.00
14242;BME280;7205;50.864;12.766;2023-04-29T06:40:57;97239.22;;;13.50;100.00
14242;BME280;7205;50.864;12.766;2023-04-29T06:43:48;97246.97;;;13.52;100.00
14242;BME280;7205;50.864;12.766;2023-04-29T06:46:45;97241.25;;;13.55;100.00
14242;BME280;7205;50.864;12.766;2023-04-29T06:49:27;97245.16;;;13.59;100.00
14242;BME280;7205;50.864;12.766;2023-04-29T06:51:54;97244.13;;;13.60;100.00
14242;BME280;7205;50.864;12.766;2023-04-29T06:54:21;97250.66;;;13.64;100.00
14242;BME280;7205;50.864;12.766;2023-04-29T06:56:49;97247.19;;;13.70;100.00
14242;BME280;7205;50.864;12.766;2023-04-29T06:59:16;97253.09;;;13.72;100.00
14242;BME280;7205;50.864;12.766;2023-04-29T07:01:43;97251.91;;;13.74;100.00
14242;BME280;7205;50.864;12.766;2023-04-29T07:04:10;97252.88;;;13.80;100.00
14242;BME280;7205;50.864;12.766;2023-04-29T07:06:39;97262.09;;;13.91;100.00
14242;BME280;7205;50.864;12.766;2023-04-29T07:09:06;97264.50;;;14.12;100.00
14242;BME280;7205;50.864;12.766;2023-04-29T07:11:35;97267.38;;;14.36;100.00
14242;BME280;7205;50.864;12.766;2023-04-29T07:14:02;97271.59;;;14.57;100.00
14242;BME280;7205;50.864;12.766;2023-04-29T07:16:29;97262.97;;;14.74;100.00
14242;BME280;7205;50.864;12.766;2023-04-29T07:18:56;97271.91;;;14.86;100.00
14242;BME280;7205;50.864;12.766;2023-04-29T07:21:23;97259.19;;;14.95;100.00
14242;BME280;7205;50.864;12.766;2023-04-29T07:23:51;97264.09;;;14.98;100.00
14242;BME280;7205;50.864;12.766;2023-04-29T07:26:19;97259.59;;;14.98;100.00
14242;BME280;7205;50.864;12.766;2023-04-29T07:28:47;97263.44;;;15.02;100.00
14242;BME280;7205;50.864;12.766;2023-04-29T07:31:14;97269.75;;;15.08;100.00
14242;BME280;7205;50.864;12.766;2023-04-29T07:33:43;97273.22;;;15.15;100.00
14242;BME280;7205;50.864;12.766;2023-04-29T07:36:10;97276.22;;;15.25;100.00
14242;BME280;7205;50.864;12.766;2023-04-29T07:38:37;97273.91;;;15.35;99.39
14242;BME280;7205;50.864;12.766;2023-04-29T07:41:06;97277.41;;;15.42;98.29
14242;BME280;7205;50.864;12.766;2023-04-29T07:43:32;97272.66;;;15.44;95.97
14242;BME280;7205;50.864;12.766;2023-04-29T07:45:59;97266.75;;;15.42;93.81
14242;BME280;7205;50.864;12.766;2023-04-29T07:48:26;97277.97;;;15.38;92.65
14242;BME280;7205;50.864;12.766;2023-04-29T07:50:53;97280.47;;;15.33;91.43
14242;BME280;7205;50.864;12.766;2023-04-29T07:53:20;97284.22;;;15.25;90.97
14242;BME280;7205;50.864;12.766;2023-04-29T07:55:49;97285.66;;;15.21;90.17
14242;BME280;7205;50.864;12.766;2023-04-29T07:58:18;97269.91;;;15.20;89.93
14242;BME280;7205;50.864;12.766;2023-04-29T08:00:45;97281.56;;;15.25;89.86
14242;BME280;7205;50.864;12.766;2023-04-29T08:03:17;97281.06;;;15.35;89.41
14242;BME280;7205;50.864;12.766;2023-04-29T08:05:48;97282.28;;;15.45;88.74
14242;BME280;7205;50.864;12.766;2023-04-29T08:08:18;97279.75;;;15.57;88.28
14242;BME280;7205;50.864;12.766;2023-04-29T08:10:57;97279.31;;;15.60;87.36
14242;BME280;7205;50.864;12.766;2023-04-29T08:13:35;97280.34;;;15.59;84.67
14242;BME280;7205;50.864;12.766;2023-04-29T08:16:03;97293.72;;;15.52;83.04
14242;BME280;7205;50.864;12.766;2023-04-29T08:18:30;97288.22;;;15.41;83.56
14242;BME280;7205;50.864;12.766;2023-04-29T08:20:57;97300.53;;;15.35;83.71
14242;BME280;7205;50.864;12.766;2023-04-29T08:23:24;97293.59;;;15.28;83.26
14242;BME280;7205;50.864;12.766;2023-04-29T08:25:51;97310.41;;;15.22;82.56
14242;BME280;7205;50.864;12.766;2023-04-29T08:28:19;97305.34;;;15.14;82.76
14242;BME280;7205;50.864;12.766;2023-04-29T08:30:47;97327.44;;;15.07;82.58
14242;BME280;7205;50.864;12.766;2023-04-29T08:33:14;97304.97;;;15.03;82.44
14242;BME280;7205;50.864;12.766;2023-04-29T08:35:41;97315.22;;;15.00;81.91
14242;BME280;7205;50.864;12.766;2023-04-29T08:38:08;97308.69;;;14.96;81.46
14242;BME280;7205;50.864;12.766;2023-04-29T08:40:40;97315.06;;;14.88;81.41
14242;BME280;7205;50.864;12.766;2023-04-29T08:43:08;97314.06;;;14.83;81.83
14242;BME280;7205;50.864;12.766;2023-04-29T08:45:36;97317.94;;;14.80;81.46
14242;BME280;7205;50.864;12.766;2023-04-29T08:48:05;97323.44;;;14.85;82.47
14242;BME280;7205;50.864;12.766;2023-04-29T08:50:36;97333.66;;;14.95;83.37
14242;BME280;7205;50.864;12.766;2023-04-29T08:53:04;97330.31;;;15.06;82.74
14242;BME280;7205;50.864;12.766;2023-04-29T08:55:34;97335.19;;;15.16;82.47
14242;BME280;7205;50.864;12.766;2023-04-29T08:58:01;97337.63;;;15.17;80.99
14242;BME280;7205;50.864;12.766;2023-04-29T09:00:30;97346.03;;;15.14;80.35
14242;BME280;7205;50.864;12.766;2023-04-29T09:02:59;97332.91;;;15.19;81.39
14242;BME280;7205;50.864;12.766;2023-04-29T09:05:28;97340.88;;;15.26;81.59
14242;BME280;7205;50.864;12.766;2023-04-29T09:07:56;97350.50;;;15.27;81.66
14242;BME280;7205;50.864;12.766;2023-04-29T09:10:27;97351.13;;;15.29;81.60
14242;BME280;7205;50.864;12.766;2023-04-29T09:12:55;97369.31;;;15.32;82.03
14242;BME280;7205;50.864;12.766;2023-04-29T09:15:22;97355.97;;;15.38;81.17
14242;BME280;7205;50.864;12.766;2023-04-29T09:17:49;97354.31;;;15.50;81.15
14242;BME280;7205;50.864;12.766;2023-04-29T09:20:25;97347.88;;;15.64;80.51
14242;BME280;7205;50.864;12.766;2023-04-29T09:22:55;97356.38;;;15.79;80.08
14242;BME280;7205;50.864;12.766;2023-04-29T09:25:22;97355.81;;;16.02;79.97
14242;BME280;7205;50.864;12.766;2023-04-29T09:27:50;97357.31;;;16.22;78.45
14242;BME280;7205;50.864;12.766;2023-04-29T09:30:17;97351.69;;;16.30;76.07
14242;BME280;7205;50.864;12.766;2023-04-29T09:32:45;97354.75;;;16.34;74.72
14242;BME280;7205;50.864;12.766;2023-04-29T09:35:29;97354.69;;;16.41;74.32
14242;BME280;7205;50.864;12.766;2023-04-29T09:38:07;97358.75;;;16.43;73.70
14242;BME280;7205;50.864;12.766;2023-04-29T09:40:34;97359.78;;;16.42;73.34
14242;BME280;7205;50.864;12.766;2023-04-29T09:43:01;97368.22;;;16.39;72.91
14242;BME280;7205;50.864;12.766;2023-04-29T09:45:33;97364.41;;;16.28;72.64
14242;BME280;7205;50.864;12.766;2023-04-29T09:48:01;97368.16;;;16.21;73.11
14242;BME280;7205;50.864;12.766;2023-04-29T09:50:29;97382.78;;;16.12;72.94
14242;BME280;7205;50.864;12.766;2023-04-29T09:52:56;97431.06;;;15.97;72.09
14242;BME280;7205;50.864;12.766;2023-04-29T09:55:25;97398.44;;;15.64;70.78
14242;BME280;7205;50.864;12.766;2023-04-29T09:57:52;97412.47;;;15.27;71.42
14242;BME280;7205;50.864;12.766;2023-04-29T10:00:19;97407.91;;;14.90;71.82
14242;BME280;7205;50.864;12.766;2023-04-29T10:02:46;97407.72;;;14.59;73.68
14242;BME280;7205;50.864;12.766;2023-04-29T10:05:14;97419.78;;;14.35;74.98
14242;BME280;7205;50.864;12.766;2023-04-29T10:07:41;97423.84;;;14.18;76.51
14242;BME280;7205;50.864;12.766;2023-04-29T10:10:09;97420.16;;;14.06;78.13
14242;BME280;7205;50.864;12.766;2023-04-29T10:12:39;97416.06;;;14.04;79.25
14242;BME280;7205;50.864;12.766;2023-04-29T10:15:15;97429.13;;;13.99;80.07
14242;BME280;7205;50.864;12.766;2023-04-29T10:17:45;97435.03;;;13.94;81.02
14242;BME280;7205;50.864;12.766;2023-04-29T10:20:21;97433.78;;;13.90;81.83
14242;BME280;7205;50.864;12.766;2023-04-29T10:22:50;97433.19;;;13.88;81.74
14242;BME280;7205;50.864;12.766;2023-04-29T10:25:19;97433.97;;;13.82;81.68
14242;BME280;7205;50.864;12.766;2023-04-29T10:27:48;97435.00;;;13.74;82.17
14242;BME280;7205;50.864;12.766;2023-04-29T10:30:18;97453.72;;;13.66;82.25
14242;BME280;7205;50.864;12.766;2023-04-29T10:32:48;97442.44;;;13.51;82.33
14242;BME280;7205;50.864;12.766;2023-04-29T10:35:16;97455.66;;;13.38;82.88
14242;BME280;7205;50.864;12.766;2023-04-29T10:37:45;97456.44;;;13.26;84.12
14242;BME280;7205;50.864;12.766;2023-04-29T10:40:15;97457.59;;;13.17;85.06
14242;BME280;7205;50.864;12.766;2023-04-29T10:42:44;97457.75;;;13.09;86.76
14242;BME280;7205;50.864;12.766;2023-04-29T10:45:24;97463.84;;;13.03;87.54
14242;BME280;7205;50.864;12.766;2023-04-29T10:48:15;97467.22;;;12.97;88.53
14242;BME280;7205;50.864;12.766;2023-04-29T10:51:01;97473.75;;;12.94;89.72
14242;BME280;7205;50.864;12.766;2023-04-29T10:53:28;97467.84;;;12.99;90.59
14242;BME280;7205;50.864;12.766;2023-04-29T10:55:58;97472.97;;;13.00;91.33
14242;BME280;7205;50.864;12.766;2023-04-29T10:58:36;97476.44;;;13.01;91.59
14242;BME280;7205;50.864;12.766;2023-04-29T11:01:04;97479.56;;;13.04;92.60
14242;BME280;7205;50.864;12.766;2023-04-29T11:03:50;97469.75;;;13.05;92.39
14242;BME280;7205;50.864;12.766;2023-04-29T11:06:21;97479.16;;;13.07;93.37
14242;BME280;7205;50.864;12.766;2023-04-29T11:08:58;97475.47;;;13.08;93.60
14242;BME280;7205;50.864;12.766;2023-04-29T11:11:31;97480.38;;;13.11;94.25
14242;BME280;7205;50.864;12.766;2023-04-29T11:14:07;97484.06;;;13.10;93.66
14242;BME280;7205;50.864;12.766;2023-04-29T11:16:36;97478.13;;;13.08;92.86
14242;BME280;7205;50.864;12.766;2023-04-29T11:19:04;97484.69;;;13.12;92.46
14242;BME280;7205;50.864;12.766;2023-04-29T11:21:33;97487.59;;;13.17;92.55
14242;BME280;7205;50.864;12.766;2023-04-29T11:24:00;97491.31;;;13.23;92.03
14242;BME280;7205;50.864;12.766;2023-04-29T11:26:27;97492.13;;;13.30;91.70
14242;BME280;7205;50.864;12.766;2023-04-29T11:28:55;97493.00;;;13.37;90.72
14242;BME280;7205;50.864;12.766;2023-04-29T11:31:25;97497.09;;;13.39;89.53
14242;BME280;7205;50.864;12.766;2023-04-29T11:33:55;97502.84;;;13.43;89.09
14242;BME280;7205;50.864;12.766;2023-04-29T11:36:23;97491.19;;;13.44;88.47
14242;BME280;7205;50.864;12.766;2023-04-29T11:38:50;97498.34;;;13.50;88.25
14242;BME280;7205;50.864;12.766;2023-04-29T11:41:17;97499.41;;;13.55;87.22
14242;BME280;7205;50.864;12.766;2023-04-29T11:43:45;97500.03;;;13.57;85.53
14242;BME280;7205;50.864;12.766;2023-04-29T11:46:12;97512.06;;;13.53;84.83
14242;BME280;7205;50.864;12.766;2023-04-29T11:48:45;97507.97;;;13.51;84.65
14242;BME280;7205;50.864;12.766;2023-04-29T11:51:14;97513.28;;;13.51;84.25
14242;BME280;7205;50.864;12.766;2023-04-29T11:53:41;97530.38;;;13.48;84.16
14242;BME280;7205;50.864;12.766;2023-04-29T11:56:08;97520.38;;;13.44;83.38
14242;BME280;7205;50.864;12.766;2023-04-29T11:58:36;97525.25;;;13.40;83.78
14242;BME280;7205;50.864;12.766;2023-04-29T12:01:04;97534.22;;;13.39;84.41
14242;BME280;7205;50.864;12.766;2023-04-29T12:03:32;97529.13;;;13.38;84.06
14242;BME280;7205;50.864;12.766;2023-04-29T12:06:00;97531.16;;;13.36;84.14
14242;BME280;7205;50.864;12.766;2023-04-29T12:08:29;97538.28;;;13.35;84.09
14242;BME280;7205;50.864;12.766;2023-04-29T12:10:58;97538.50;;;13.40;84.53
14242;BME280;7205;50.864;12.766;2023-04-29T12:13:27;97550.63;;;13.49;84.07
14242;BME280;7205;50.864;12.766;2023-04-29T12:15:55;97545.97;;;13.58;83.84
14242;BME280;7205;50.864;12.766;2023-04-29T12:18:22;97541.53;;;13.71;83.50
14242;BME280;7205;50.864;12.766;2023-04-29T12:20:49;97541.00;;;13.89;83.69
14242;BME280;7205;50.864;12.766;2023-04-29T12:23:18;97544.31;;;14.04;82.88
14242;BME280;7205;50.864;12.766;2023-04-29T12:25:50;97530.03;;;14.12;81.67
14242;BME280;7205;50.864;12.766;2023-04-29T12:28:18;97539.47;;;14.14;80.31
14242;BME280;7205;50.864;12.766;2023-04-29T12:30:45;97538.22;;;14.10;79.16
14242;BME280;7205;50.864;12.766;2023-04-29T12:33:15;97544.53;;;14.03;78.92
14242;BME280;7205;50.864;12.766;2023-04-29T12:35:44;97541.03;;;13.96;78.25
14242;BME280;7205;50.864;12.766;2023-04-29T12:38:10;97544.28;;;13.91;78.42
14242;BME280;7205;50.864;12.766;2023-04-29T12:40:41;97548.56;;;13.92;78.85
14242;BME280;7205;50.864;12.766;2023-04-29T12:43:09;97553.50;;;14.02;79.04
14242;BME280;7205;50.864;12.766;2023-04-29T12:45:37;97557.63;;;14.11;78.83
14242;BME280;7205;50.864;12.766;2023-04-29T12:48:05;97560.94;;;14.19;77.98
14242;BME280;7205;50.864;12.766;2023-04-29T12:50:33;97561.59;;;14.28;77.68
14242;BME280;7205;50.864;12.766;2023-04-29T12:53:01;97563.06;;;14.43;77.99
14242;BME280;7205;50.864;12.766;2023-04-29T12:55:30;97560.44;;;14.56;76.78
14242;BME280;7205;50.864;12.766;2023-04-29T12:57:57;97561.28;;;14.76;76.49
14242;BME280;7205;50.864;12.766;2023-04-29T13:00:25;97566.19;;;14.92;74.41
14242;BME280;7205;50.864;12.766;2023-04-29T13:02:52;97557.78;;;15.02;72.57
14242;BME280;7205;50.864;12.766;2023-04-29T13:05:19;97554.75;;;14.98;70.42
14242;BME280;7205;50.864;12.766;2023-04-29T13:07:46;97552.06;;;14.85;69.29
14242;BME280;7205;50.864;12.766;2023-04-29T13:10:13;97562.06;;;14.70;69.99
14242;BME280;7205;50.864;12.766;2023-04-29T13:12:40;97562.28;;;14.62;70.76